sensor_id;sensor_type;location;lat;lon;timestamp;pressure;altitude;pressure_sealevel;temperature;humidity
18900;BME280;9582;52.018;6.306;2023-01-04T00:00:17;101820.66;;;8.94;100.00
18900;BME280;9582;52.018;6.306;2023-01-04T00:02:44;101820.72;;;8.90;100.00
18900;BME280;9582;52.018;6.306;2023-01-04T00:05:11;101828.59;;;8.88;100.00
18900;BME280;9582;52.018;6.306;2023-01-04T00:07:38;101829.41;;;8.90;100.00
18900;BME280;9582;52.018;6.306;2023-01-04T00:10:05;101814.75;;;8.86;100.00
18900;BME280;9582;52.018;6.306;2023-01-04T00:12:34;101808.66;;;8.86;100.00
18900;BME280;9582;52.018;6.306;2023-01-04T00:15:00;101813.88;;;8.86;100.00
18900;BME280;9582;52.018;6.306;2023-01-04T00:17:27;101802.53;;;8.88;100.00
18900;BME280;9582;52.018;6.306;2023-01-04T00:19:53;101795.56;;;8.87;100.00
18900;BME280;9582;52.018;6.306;2023-01-04T00:22:21;101797.53;;;8.78;100.00
18900;BME280;9582;52.018;6.306;2023-01-04T00:24:47;101792.16;;;8.85;100.00
18900;BME280;9582;52.018;6.306;2023-01-04T00:27:14;101786.94;;;8.85;100.00
18900;BME280;9582;52.018;6.306;2023-01-04T00:29:40;101786.06;;;8.85;100.00
18900;BME280;9582;52.018;6.306;2023-01-04T00:32:07;101787.88;;;8.83;100.00
18900;BME280;9582;52.018;6.306;2023-01-04T00:34:33;101781.84;;;8.79;100.00
18900;BME280;9582;52.018;6.306;2023-01-04T00:37:00;101773.16;;;8.80;100.00
18900;BME280;9582;52.018;6.306;2023-01-04T00:39:28;101754.97;;;8.77;100.00
18900;BME280;9582;52.018;6.306;2023-01-04T00:41:54;101760.13;;;8.79;100.00
18900;BME280;9582;52.018;6.306;2023-01-04T00:44:30;101746.34;;;8.74;100.00
18900;BME280;9582;52.018;6.306;2023-01-04T00:46:57;101736.72;;;8.77;100.00
18900;BME280;9582;52.018;6.306;2023-01-04T00:49:24;101736.84;;;8.69;100.00
18900;BME280;9582;52.018;6.306;2023-01-04T00:51:51;101734.16;;;8.74;100.00
18900;BME280;9582;52.018;6.306;2023-01-04T00:54:18;101723.72;;;8.74;100.00
18900;BME280;9582;52.018;6.306;2023-01-04T00:56:47;101727.22;;;8.73;100.00
18900;BME280;9582;52.018;6.306;2023-01-04T00:59:16;101728.03;;;8.75;100.00
18900;BME280;9582;52.018;6.306;2023-01-04T01:01:43;101714.19;;;8.73;100.00
18900;BME280;9582;52.018;6.306;2023-01-04T01:04:12;101717.59;;;8.75;100.00
18900;BME280;9582;52.018;6.306;2023-01-04T01:06:39;101700.34;;;8.71;100.00
18900;BME280;9582;52.018;6.306;2023-01-04T01:09:05;101699.41;;;8.74;100.00
18900;BME280;9582;52.018;6.306;2023-01-04T01:11:32;101689.03;;;8.72;100.00
18900;BME280;9582;52.018;6.306;2023-01-04T01:14:02;101703.75;;;8.73;100.00
18900;BME280;9582;52.018;6.306;2023-01-04T01:16:29;101695.06;;;8.74;100.00
18900;BME280;9582;52.018;6.306;2023-01-04T01:18:55;101691.44;;;8.80;100.00
18900;BME280;9582;52.018;6.306;2023-01-04T01:21:24;101689.91;;;8.71;100.00
18900;BME280;9582;52.018;6.306;2023-01-04T01:23:52;101663.84;;;8.69;100.00
18900;BME280;9582;52.018;6.306;2023-01-04T01:26:21;101663.75;;;8.74;100.00
18900;BME280;9582;52.018;6.306;2023-01-04T01:28:48;101661.97;;;8.76;100.00
18900;BME280;9582;52.018;6.306;2023-01-04T01:31:18;101667.03;;;8.82;100.00
18900;BME280;9582;52.018;6.306;2023-01-04T01:33:46;101674.06;;;8.80;100.00
18900;BME280;9582;52.018;6.306;2023-01-04T01:36:14;101665.38;;;8.78;100.00
18900;BME280;9582;52.018;6.306;2023-01-04T01:38:42;101651.50;;;8.78;100.00
18900;BME280;9582;52.018;6.306;2023-01-04T01:41:15;101654.00;;;8.82;100.00
18900;BME280;9582;52.018;6.306;2023-01-04T01:43:48;101642.69;;;8.83;100.00
18900;BME280;9582;52.018;6.306;2023-01-04T01:46:18;101628.78;;;8.83;100.00
18900;BME280;9582;52.018;6.306;2023-01-04T01:48:46;101634.81;;;8.85;100.00
18900;BME280;9582;52.018;6.306;2023-01-04T01:51:14;101621.75;;;8.85;100.00
18900;BME280;9582;52.018;6.306;2023-01-04T01:53:44;101620.84;;;8.87;100.00
18900;BME280;9582;52.018;6.306;2023-01-04T01:56:14;101606.94;;;8.87;100.00
18900;BME280;9582;52.018;6.306;2023-01-04T01:58:45;101601.78;;;8.84;100.00
18900;BME280;9582;52.018;6.306;2023-01-04T02:01:12;101606.75;;;8.94;100.00
18900;BME280;9582;52.018;6.306;2023-01-04T02:03:41;101602.56;;;8.89;100.00
18900;BME280;9582;52.018;6.306;2023-01-04T02:06:11;101588.66;;;8.88;100.00
18900;BME280;9582;52.018;6.306;2023-01-04T02:08:39;101571.03;;;8.96;100.00
18900;BME280;9582;52.018;6.306;2023-01-04T02:11:07;101546.59;;;9.00;100.00
18900;BME280;9582;52.018;6.306;2023-01-04T02:13:34;101545.66;;;9.03;100.00
18900;BME280;9582;52.018;6.306;2023-01-04T02:16:31;101599.50;;;9.05;100.00
18900;BME280;9582;52.018;6.306;2023-01-04T02:19:11;101575.09;;;9.08;100.00
18900;BME280;9582;52.018;6.306;2023-01-04T02:21:55;101580.19;;;9.12;100.00
18900;BME280;9582;52.018;6.306;2023-01-04T02:24:43;101576.53;;;9.18;100.00
18900;BME280;9582;52.018;6.306;2023-01-04T02:27:31;101559.13;;;9.20;100.00
18900;BME280;9582;52.018;6.306;2023-01-04T02:30:32;101576.53;;;9.19;100.00
18900;BME280;9582;52.018;6.306;2023-01-04T02:33:23;101545.84;;;9.27;100.00
18900;BME280;9582;52.018;6.306;2023-01-04T02:35:58;101564.91;;;9.29;100.00
18900;BME280;9582;52.018;6.306;2023-01-04T02:38:30;101530.75;;;9.39;100.00
18900;BME280;9582;52.018;6.306;2023-01-04T02:41:04;101521.19;;;9.38;100.00
18900;BME280;9582;52.018;6.306;2023-01-04T02:43:37;101547.91;;;9.46;100.00
18900;BME280;9582;52.018;6.306;2023-01-04T02:46:26;101528.81;;;9.45;100.00
18900;BME280;9582;52.018;6.306;2023-01-04T02:48:58;101507.88;;;9.47;100.00
18900;BME280;9582;52.018;6.306;2023-01-04T02:51:42;101525.25;;;9.48;100.00
18900;BME280;9582;52.018;6.306;2023-01-04T02:54:13;101519.09;;;9.50;100.00
18900;BME280;9582;52.018;6.306;2023-01-04T02:56:53;101505.09;;;9.53;100.00
18900;BME280;9582;52.018;6.306;2023-01-04T02:59:38;101525.91;;;9.54;100.00
18900;BME280;9582;52.018;6.306;2023-01-04T03:02:21;101500.75;;;9.52;100.00
18900;BME280;9582;52.018;6.306;2023-01-04T03:05:19;101512.88;;;9.54;100.00
18900;BME280;9582;52.018;6.306;2023-01-04T03:08:25;101496.31;;;9.55;100.00
18900;BME280;9582;52.018;6.306;2023-01-04T03:10:58;101487.34;;;9.64;100.00
18900;BME280;9582;52.018;6.306;2023-01-04T03:13:27;101482.03;;;9.67;100.00
18900;BME280;9582;52.018;6.306;2023-01-04T03:15:57;101489.78;;;9.70;100.00
18900;BME280;9582;52.018;6.306;2023-01-04T03:18:28;101494.19;;;9.68;100.00
18900;BME280;9582;52.018;6.306;2023-01-04T03:21:00;101477.50;;;9.73;100.00
18900;BME280;9582;52.018;6.306;2023-01-04T03:23:31;101490.47;;;9.76;100.00
18900;BME280;9582;52.018;6.306;2023-01-04T03:26:19;101466.88;;;9.78;100.00
18900;BME280;9582;52.018;6.306;2023-01-04T03:29:09;101465.22;;;9.75;100.00
18900;BME280;9582;52.018;6.306;2023-01-04T03:31:59;101468.63;;;9.77;100.00
18900;BME280;9582;52.018;6.306;2023-01-04T03:34:45;101473.75;;;9.82;100.00
18900;BME280;9582;52.018;6.306;2023-01-04T03:37:37;101463.94;;;9.88;100.00
18900;BME280;9582;52.018;6.306;2023-01-04T03:40:18;101464.84;;;9.88;100.00
18900;BME280;9582;52.018;6.306;2023-01-04T03:43:06;101442.91;;;9.93;100.00
18900;BME280;9582;52.018;6.306;2023-01-04T03:45:55;101453.44;;;9.90;100.00
18900;BME280;9582;52.018;6.306;2023-01-04T03:48:46;101440.28;;;9.93;100.00
18900;BME280;9582;52.018;6.306;2023-01-04T03:51:16;101441.97;;;9.94;100.00
18900;BME280;9582;52.018;6.306;2023-01-04T03:53:51;101452.25;;;10.00;100.00
18900;BME280;9582;52.018;6.306;2023-01-04T03:56:20;101439.06;;;10.03;100.00
18900;BME280;9582;52.018;6.306;2023-01-04T03:58:49;101447.81;;;10.02;100.00
18900;BME280;9582;52.018;6.306;2023-01-04T04:01:17;101443.44;;;10.03;100.00
18900;BME280;9582;52.018;6.306;2023-01-04T04:03:44;101439.88;;;10.05;100.00
18900;BME280;9582;52.018;6.306;2023-01-04T04:06:28;101453.69;;;10.09;100.00
18900;BME280;9582;52.018;6.306;2023-01-04T04:09:14;101443.50;;;10.01;100.00
18900;BME280;9582;52.018;6.306;2023-01-04T04:11:41;101451.25;;;10.04;100.00
18900;BME280;9582;52.018;6.306;2023-01-04T04:14:07;101446.03;;;10.04;100.00
18900;BME280;9582;52.018;6.306;2023-01-04T04:16:33;101447.50;;;10.11;100.00
18900;BME280;9582;52.018;6.306;2023-01-04T04:19:00;101445.63;;;10.16;100.00
18900;BME280;9582;52.018;6.306;2023-01-04T04:21:26;101444.56;;;10.22;100.00
18900;BME280;9582;52.018;6.306;2023-01-04T04:23:53;101436.91;;;10.17;100.00
18900;BME280;9582;52.018;6.306;2023-01-04T04:26:22;101440.28;;;10.21;100.00
18900;BME280;9582;52.018;6.306;2023-01-04T04:28:48;101438.28;;;10.27;100.00
18900;BME280;9582;52.018;6.306;2023-01-04T04:31:15;101419.19;;;10.25;100.00
18900;BME280;9582;52.018;6.306;2023-01-04T04:33:42;101433.28;;;10.21;100.00
18900;BME280;9582;52.018;6.306;2023-01-04T04:36:09;101428.66;;;10.29;100.00
18900;BME280;9582;52.018;6.306;2023-01-04T04:38:37;101426.03;;;10.29;100.00
18900;BME280;9582;52.018;6.306;2023-01-04T04:41:07;101417.28;;;10.30;100.00
18900;BME280;9582;52.018;6.306;2023-01-04T04:43:53;101413.72;;;10.33;100.00
18900;BME280;9582;52.018;6.306;2023-01-04T04:46:20;101409.41;;;10.32;100.00
18900;BME280;9582;52.018;6.306;2023-01-04T04:48:46;101398.75;;;10.38;100.00
18900;BME280;9582;52.018;6.306;2023-01-04T04:51:13;101397.88;;;10.37;100.00
18900;BME280;9582;52.018;6.306;2023-01-04T04:53:39;101406.41;;;10.42;100.00
18900;BME280;9582;52.018;6.306;2023-01-04T04:56:06;101373.38;;;10.40;100.00
18900;BME280;9582;52.018;6.306;2023-01-04T04:58:33;101398.53;;;10.44;100.00
18900;BME280;9582;52.018;6.306;2023-01-04T05:01:02;101408.13;;;10.43;100.00
18900;BME280;9582;52.018;6.306;2023-01-04T05:03:28;101395.84;;;10.46;100.00
18900;BME280;9582;52.018;6.306;2023-01-04T05:05:55;101396.72;;;10.46;100.00
18900;BME280;9582;52.018;6.306;2023-01-04T05:08:21;101396.63;;;10.48;100.00
18900;BME280;9582;52.018;6.306;2023-01-04T05:10:48;101398.47;;;10.46;100.00
18900;BME280;9582;52.018;6.306;2023-01-04T05:13:14;101387.94;;;10.47;100.00
18900;BME280;9582;52.018;6.306;2023-01-04T05:15:41;101390.56;;;10.47;100.00
18900;BME280;9582;52.018;6.306;2023-01-04T05:18:12;101380.94;;;10.48;100.00
18900;BME280;9582;52.018;6.306;2023-01-04T05:20:38;101383.47;;;10.51;100.00
18900;BME280;9582;52.018;6.306;2023-01-04T05:23:06;101387.72;;;10.53;100.00
18900;BME280;9582;52.018;6.306;2023-01-04T05:25:32;101371.13;;;10.54;100.00
18900;BME280;9582;52.018;6.306;2023-01-04T05:27:59;101357.19;;;10.54;100.00
18900;BME280;9582;52.018;6.306;2023-01-04T05:30:26;101358.06;;;10.54;100.00
18900;BME280;9582;52.018;6.306;2023-01-04T05:33:12;101351.00;;;10.56;100.00
18900;BME280;9582;52.018;6.306;2023-01-04T05:35:38;101357.09;;;10.57;100.00
18900;BME280;9582;52.018;6.306;2023-01-04T05:38:05;101339.69;;;10.56;100.00
18900;BME280;9582;52.018;6.306;2023-01-04T05:40:32;101348.47;;;10.55;100.00
18900;BME280;9582;52.018;6.306;2023-01-04T05:42:58;101348.34;;;10.58;100.00
18900;BME280;9582;52.018;6.306;2023-01-04T05:45:25;101348.25;;;10.61;100.00
18900;BME280;9582;52.018;6.306;2023-01-04T05:47:52;101342.09;;;10.62;100.00
18900;BME280;9582;52.018;6.306;2023-01-04T05:50:21;101340.22;;;10.65;100.00
18900;BME280;9582;52.018;6.306;2023-01-04T05:52:49;101321.13;;;10.63;100.00
18900;BME280;9582;52.018;6.306;2023-01-04T05:55:16;101329.75;;;10.65;100.00
18900;BME280;9582;52.018;6.306;2023-01-04T05:57:42;101313.22;;;10.65;100.00
18900;BME280;9582;52.018;6.306;2023-01-04T06:00:10;101332.16;;;10.71;100.00
18900;BME280;9582;52.018;6.306;2023-01-04T06:02:41;101324.19;;;10.74;100.00
18900;BME280;9582;52.018;6.306;2023-01-04T06:05:08;101322.47;;;10.73;100.00
18900;BME280;9582;52.018;6.306;2023-01-04T06:07:36;101335.44;;;10.76;100.00
18900;BME280;9582;52.018;6.306;2023-01-04T06:10:03;101329.25;;;10.79;100.00
18900;BME280;9582;52.018;6.306;2023-01-04T06:12:30;101321.38;;;10.79;100.00
18900;BME280;9582;52.018;6.306;2023-01-04T06:14:56;101315.31;;;10.78;100.00
18900;BME280;9582;52.018;6.306;2023-01-04T06:17:23;101329.00;;;10.85;100.00
18900;BME280;9582;52.018;6.306;2023-01-04T06:19:50;101307.31;;;10.83;100.00
18900;BME280;9582;52.018;6.306;2023-01-04T06:22:16;101308.94;;;10.85;100.00
18900;BME280;9582;52.018;6.306;2023-01-04T06:24:44;101306.31;;;10.85;100.00
18900;BME280;9582;52.018;6.306;2023-01-04T06:27:10;101308.88;;;10.87;100.00
18900;BME280;9582;52.018;6.306;2023-01-04T06:29:37;101305.34;;;10.88;100.00
18900;BME280;9582;52.018;6.306;2023-01-04T06:32:03;101296.66;;;10.87;100.00
18900;BME280;9582;52.018;6.306;2023-01-04T06:34:30;101313.94;;;10.91;100.00
18900;BME280;9582;52.018;6.306;2023-01-04T06:36:57;101311.38;;;10.90;100.00
18900;BME280;9582;52.018;6.306;2023-01-04T06:39:23;101296.59;;;10.89;100.00
18900;BME280;9582;52.018;6.306;2023-01-04T06:41:51;101299.94;;;10.92;100.00
18900;BME280;9582;52.018;6.306;2023-01-04T06:44:17;101314.00;;;10.90;100.00
18900;BME280;9582;52.018;6.306;2023-01-04T06:46:44;101327.78;;;10.95;100.00
18900;BME280;9582;52.018;6.306;2023-01-04T06:49:10;101309.31;;;10.98;100.00
18900;BME280;9582;52.018;6.306;2023-01-04T06:51:38;101306.84;;;10.95;100.00
18900;BME280;9582;52.018;6.306;2023-01-04T06:54:05;101315.59;;;10.94;100.00
18900;BME280;9582;52.018;6.306;2023-01-04T06:56:31;101303.28;;;10.96;100.00
18900;BME280;9582;52.018;6.306;2023-01-04T06:58:59;101287.47;;;10.99;100.00
18900;BME280;9582;52.018;6.306;2023-01-04T07:01:25;101304.03;;;10.99;100.00
18900;BME280;9582;52.018;6.306;2023-01-04T07:03:52;101305.59;;;11.03;100.00
18900;BME280;9582;52.018;6.306;2023-01-04T07:06:18;101314.31;;;11.04;100.00
18900;BME280;9582;52.018;6.306;2023-01-04T07:08:45;101291.63;;;11.05;100.00
18900;BME280;9582;52.018;6.306;2023-01-04T07:11:11;101299.16;;;11.12;100.00
18900;BME280;9582;52.018;6.306;2023-01-04T07:13:38;101301.00;;;11.10;100.00
18900;BME280;9582;52.018;6.306;2023-01-04T07:16:06;101295.53;;;11.16;100.00
18900;BME280;9582;52.018;6.306;2023-01-04T07:18:32;101298.91;;;11.18;100.00
18900;BME280;9582;52.018;6.306;2023-01-04T07:21:00;101297.22;;;11.17;100.00
18900;BME280;9582;52.018;6.306;2023-01-04T07:23:27;101291.81;;;11.22;100.00
18900;BME280;9582;52.018;6.306;2023-01-04T07:25:53;101295.94;;;11.27;100.00
18900;BME280;9582;52.018;6.306;2023-01-04T07:28:20;101299.41;;;11.28;100.00
18900;BME280;9582;52.018;6.306;2023-01-04T07:31:03;101287.13;;;11.30;100.00
18900;BME280;9582;52.018;6.306;2023-01-04T07:33:32;101276.59;;;11.31;100.00
18900;BME280;9582;52.018;6.306;2023-01-04T07:36:01;101283.50;;;11.32;100.00
18900;BME280;9582;52.018;6.306;2023-01-04T07:38:28;101284.34;;;11.34;100.00
18900;BME280;9582;52.018;6.306;2023-01-04T07:40:54;101282.50;;;11.36;100.00
18900;BME280;9582;52.018;6.306;2023-01-04T07:43:21;101263.38;;;11.34;100.00
18900;BME280;9582;52.018;6.306;2023-01-04T07:45:47;101250.34;;;11.33;100.00
18900;BME280;9582;52.018;6.306;2023-01-04T07:48:14;101270.31;;;11.35;100.00
18900;BME280;9582;52.018;6.306;2023-01-04T07:50:43;101269.41;;;11.36;100.00
18900;BME280;9582;52.018;6.306;2023-01-04T07:53:10;101268.53;;;11.36;100.00
18900;BME280;9582;52.018;6.306;2023-01-04T07:55:37;101253.69;;;11.36;100.00
18900;BME280;9582;52.018;6.306;2023-01-04T07:58:03;101255.25;;;11.40;100.00
18900;BME280;9582;52.018;6.306;2023-01-04T08:00:29;101252.59;;;11.42;100.00
18900;BME280;9582;52.018;6.306;2023-01-04T08:02:56;101249.06;;;11.43;100.00
18900;BME280;9582;52.018;6.306;2023-01-04T08:05:22;101249.09;;;11.41;100.00
18900;BME280;9582;52.018;6.306;2023-01-04T08:07:50;101249.09;;;11.41;100.00
18900;BME280;9582;52.018;6.306;2023-01-04T08:10:20;101242.03;;;11.43;100.00
18900;BME280;9582;52.018;6.306;2023-01-04T08:12:50;101231.56;;;11.43;100.00
18900;BME280;9582;52.018;6.306;2023-01-04T08:15:16;101241.88;;;11.48;100.00
18900;BME280;9582;52.018;6.306;2023-01-04T08:17:43;101248.78;;;11.49;100.00
18900;BME280;9582;52.018;6.306;2023-01-04T08:20:10;101240.94;;;11.49;100.00
18900;BME280;9582;52.018;6.306;2023-01-04T08:22:36;101234.88;;;11.48;100.00
18900;BME280;9582;52.018;6.306;2023-01-04T08:25:05;101240.75;;;11.53;100.00
18900;BME280;9582;52.018;6.306;2023-01-04T08:27:32;101240.63;;;11.56;100.00
18900;BME280;9582;52.018;6.306;2023-01-04T08:29:58;101241.59;;;11.54;100.00
18900;BME280;9582;52.018;6.306;2023-01-04T08:32:25;101237.28;;;11.53;100.00
18900;BME280;9582;52.018;6.306;2023-01-04T08:34:52;101245.06;;;11.54;100.00
18900;BME280;9582;52.018;6.306;2023-01-04T08:37:18;101241.53;;;11.55;100.00
18900;BME280;9582;52.018;6.306;2023-01-04T08:39:45;101245.06;;;11.54;100.00
18900;BME280;9582;52.018;6.306;2023-01-04T08:42:12;101242.25;;;11.59;100.00
18900;BME280;9582;52.018;6.306;2023-01-04T08:44:39;101248.59;;;11.53;100.00
18900;BME280;9582;52.018;6.306;2023-01-04T08:47:05;101255.47;;;11.56;100.00
18900;BME280;9582;52.018;6.306;2023-01-04T08:49:32;101249.25;;;11.58;100.00
18900;BME280;9582;52.018;6.306;2023-01-04T08:51:58;101249.25;;;11.58;100.00
18900;BME280;9582;52.018;6.306;2023-01-04T08:54:25;101254.41;;;11.60;100.00
18900;BME280;9582;52.018;6.306;2023-01-04T08:56:51;101239.63;;;11.59;100.00
18900;BME280;9582;52.018;6.306;2023-01-04T08:59:19;101249.06;;;11.63;100.00
18900;BME280;9582;52.018;6.306;2023-01-04T09:01:46;101238.66;;;11.62;100.00
18900;BME280;9582;52.018;6.306;2023-01-04T09:04:12;101240.28;;;11.64;100.00
18900;BME280;9582;52.018;6.306;2023-01-04T09:06:39;101232.31;;;11.67;100.00
18900;BME280;9582;52.018;6.306;2023-01-04T09:09:06;101233.13;;;11.69;100.00
18900;BME280;9582;52.018;6.306;2023-01-04T09:11:33;101223.44;;;11.71;100.00
18900;BME280;9582;52.018;6.306;2023-01-04T09:14:00;101222.50;;;11.72;100.00
18900;BME280;9582;52.018;6.306;2023-01-04T09:16:29;101225.09;;;11.74;100.00
18900;BME280;9582;52.018;6.306;2023-01-04T09:18:56;101221.66;;;11.72;100.00
18900;BME280;9582;52.018;6.306;2023-01-04T09:21:22;101210.28;;;11.73;100.00
18900;BME280;9582;52.018;6.306;2023-01-04T09:23:49;101221.47;;;11.76;100.00
18900;BME280;9582;52.018;6.306;2023-01-04T09:26:16;101221.25;;;11.81;100.00
18900;BME280;9582;52.018;6.306;2023-01-04T09:28:45;101222.00;;;11.84;100.00
18900;BME280;9582;52.018;6.306;2023-01-04T09:31:13;101200.13;;;11.85;100.00
18900;BME280;9582;52.018;6.306;2023-01-04T09:33:41;101225.97;;;11.93;100.00
18900;BME280;9582;52.018;6.306;2023-01-04T09:36:12;101231.13;;;11.94;100.00
18900;BME280;9582;52.018;6.306;2023-01-04T09:38:39;101218.63;;;12.01;100.00
18900;BME280;9582;52.018;6.306;2023-01-04T09:41:17;101220.38;;;12.00;100.00
18900;BME280;9582;52.018;6.306;2023-01-04T09:43:47;101228.72;;;12.10;100.00
18900;BME280;9582;52.018;6.306;2023-01-04T09:46:20;101228.50;;;12.14;100.00
18900;BME280;9582;52.018;6.306;2023-01-04T09:48:55;101227.72;;;12.12;100.00
18900;BME280;9582;52.018;6.306;2023-01-04T09:51:31;101224.75;;;12.20;100.00
18900;BME280;9582;52.018;6.306;2023-01-04T09:54:01;101228.13;;;12.22;100.00
18900;BME280;9582;52.018;6.306;2023-01-04T09:56:32;101239.16;;;12.30;100.00
18900;BME280;9582;52.018;6.306;2023-01-04T09:59:00;101236.69;;;12.27;100.00
18900;BME280;9582;52.018;6.306;2023-01-04T10:01:34;101234.81;;;12.29;100.00
18900;BME280;9582;52.018;6.306;2023-01-04T10:04:06;101253.94;;;12.31;100.00
18900;BME280;9582;52.018;6.306;2023-01-04T10:06:38;101243.59;;;12.28;100.00
18900;BME280;9582;52.018;6.306;2023-01-04T10:09:09;101257.03;;;12.41;100.00
18900;BME280;9582;52.018;6.306;2023-01-04T10:11:47;101259.78;;;12.38;100.00
18900;BME280;9582;52.018;6.306;2023-01-04T10:14:27;101257.38;;;12.33;100.00
18900;BME280;9582;52.018;6.306;2023-01-04T10:17:07;101254.75;;;12.33;100.00
18900;BME280;9582;52.018;6.306;2023-01-04T10:19:57;101260.63;;;12.38;100.00
18900;BME280;9582;52.018;6.306;2023-01-04T10:22:34;101248.56;;;12.34;100.00
18900;BME280;9582;52.018;6.306;2023-01-04T10:25:17;101247.06;;;12.29;100.00
18900;BME280;9582;52.018;6.306;2023-01-04T10:27:50;101239.84;;;12.34;100.00
18900;BME280;9582;52.018;6.306;2023-01-04T10:30:29;101244.97;;;12.37;100.00
18900;BME280;9582;52.018;6.306;2023-01-04T10:33:03;101236.59;;;12.29;100.00
18900;BME280;9582;52.018;6.306;2023-01-04T10:35:37;101244.41;;;12.30;100.00
18900;BME280;9582;52.018;6.306;2023-01-04T10:38:13;101231.44;;;12.27;100.00
18900;BME280;9582;52.018;6.306;2023-01-04T10:40:41;101238.34;;;12.28;100.00
18900;BME280;9582;52.018;6.306;2023-01-04T10:43:15;101238.34;;;12.28;100.00
18900;BME280;9582;52.018;6.306;2023-01-04T10:45:49;101235.72;;;12.28;100.00
18900;BME280;9582;52.018;6.306;2023-01-04T10:48:22;101244.41;;;12.30;100.00
18900;BME280;9582;52.018;6.306;2023-01-04T10:50:55;101234.69;;;12.32;100.00
18900;BME280;9582;52.018;6.306;2023-01-04T10:53:25;101233.78;;;12.33;100.00
18900;BME280;9582;52.018;6.306;2023-01-04T10:55:58;101231.94;;;12.35;100.00
18900;BME280;9582;52.018;6.306;2023-01-04T10:58:33;101245.03;;;12.35;100.00
18900;BME280;9582;52.018;6.306;2023-01-04T11:01:04;101237.22;;;12.34;100.00
18900;BME280;9582;52.018;6.306;2023-01-04T11:03:37;101229.31;;;12.35;100.00
18900;BME280;9582;52.018;6.306;2023-01-04T11:06:13;101223.22;;;12.35;100.00
18900;BME280;9582;52.018;6.306;2023-01-04T11:08:44;101209.88;;;12.39;100.00
18900;BME280;9582;52.018;6.306;2023-01-04T11:11:15;101222.06;;;12.40;100.00
18900;BME280;9582;52.018;6.306;2023-01-04T11:13:43;101214.94;;;12.44;100.00
18900;BME280;9582;52.018;6.306;2023-01-04T11:16:09;101224.69;;;12.40;100.00
18900;BME280;9582;52.018;6.306;2023-01-04T11:18:37;101203.81;;;12.39;100.00
18900;BME280;9582;52.018;6.306;2023-01-04T11:21:10;101207.78;;;12.47;100.00
18900;BME280;9582;52.018;6.306;2023-01-04T11:23:38;101199.25;;;12.42;100.00
18900;BME280;9582;52.018;6.306;2023-01-04T11:26:08;101209.44;;;12.48;100.00
18900;BME280;9582;52.018;6.306;2023-01-04T11:28:40;101208.59;;;12.48;100.00
18900;BME280;9582;52.018;6.306;2023-01-04T11:31:16;101213.03;;;12.47;100.00
18900;BME280;9582;52.018;6.306;2023-01-04T11:33:54;101205.34;;;12.43;100.00
18900;BME280;9582;52.018;6.306;2023-01-04T11:36:36;101208.91;;;12.42;100.00
18900;BME280;9582;52.018;6.306;2023-01-04T11:39:05;101199.25;;;12.42;100.00
18900;BME280;9582;52.018;6.306;2023-01-04T11:41:32;101195.00;;;12.40;100.00
18900;BME280;9582;52.018;6.306;2023-01-04T11:44:01;101194.00;;;12.42;100.00
18900;BME280;9582;52.018;6.306;2023-01-04T11:46:30;101178.41;;;12.39;100.00
18900;BME280;9582;52.018;6.306;2023-01-04T11:48:57;101191.31;;;12.44;100.00
18900;BME280;9582;52.018;6.306;2023-01-04T11:51:37;101184.38;;;12.43;100.00
18900;BME280;9582;52.018;6.306;2023-01-04T11:54:16;101185.22;;;12.43;100.00
18900;BME280;9582;52.018;6.306;2023-01-04T11:56:57;101186.97;;;12.43;100.00
18900;BME280;9582;52.018;6.306;2023-01-04T11:59:23;101186.00;;;12.45;100.00
18900;BME280;9582;52.018;6.306;2023-01-04T12:01:51;101177.34;;;12.43;100.00
18900;BME280;9582;52.018;6.306;2023-01-04T12:04:35;101164.09;;;12.46;100.00
18900;BME280;9582;52.018;6.306;2023-01-04T12:07:06;101155.50;;;12.43;100.00
18900;BME280;9582;52.018;6.306;2023-01-04T12:09:36;101146.25;;;12.36;100.00
18900;BME280;9582;52.018;6.306;2023-01-04T12:12:04;101138.88;;;12.44;100.00
18900;BME280;9582;52.018;6.306;2023-01-04T12:14:34;101138.56;;;12.50;100.00
18900;BME280;9582;52.018;6.306;2023-01-04T12:17:03;101137.72;;;12.49;100.00
18900;BME280;9582;52.018;6.306;2023-01-04T12:19:33;101143.88;;;12.48;100.00
18900;BME280;9582;52.018;6.306;2023-01-04T12:22:03;101154.22;;;12.51;100.00
18900;BME280;9582;52.018;6.306;2023-01-04T12:24:39;101164.81;;;12.50;100.00
18900;BME280;9582;52.018;6.306;2023-01-04T12:27:11;101177.47;;;12.59;100.00
18900;BME280;9582;52.018;6.306;2023-01-04T12:30:00;101176.56;;;12.60;100.00
18900;BME280;9582;52.018;6.306;2023-01-04T12:32:41;101165.44;;;12.55;100.00
18900;BME280;9582;52.018;6.306;2023-01-04T12:39:04;101144.78;;;12.66;100.00
18900;BME280;9582;52.018;6.306;2023-01-04T12:42:14;101155.03;;;12.70;100.00
18900;BME280;9582;52.018;6.306;2023-01-04T12:45:19;101163.63;;;12.74;100.00
18900;BME280;9582;52.018;6.306;2023-01-04T12:47:48;101164.63;;;12.71;100.00
18900;BME280;9582;52.018;6.306;2023-01-04T12:53:55;101155.63;;;12.77;100.00
18900;BME280;9582;52.018;6.306;2023-01-04T12:59:52;101150.97;;;12.82;100.00
18900;BME280;9582;52.018;6.306;2023-01-04T13:02:21;101157.09;;;12.83;100.00
18900;BME280;9582;52.018;6.306;2023-01-04T13:04:49;101160.63;;;12.82;100.00
18900;BME280;9582;52.018;6.306;2023-01-04T13:07:20;101143.66;;;12.89;100.00
18900;BME280;9582;52.018;6.306;2023-01-04T13:09:53;101139.28;;;12.89;100.00
18900;BME280;9582;52.018;6.306;2023-01-04T13:12:48;101153.25;;;12.90;100.00
18900;BME280;9582;52.018;6.306;2023-01-04T13:15:22;101151.31;;;12.93;100.00
18900;BME280;9582;52.018;6.306;2023-01-04T13:17:51;101155.78;;;12.91;100.00
18900;BME280;9582;52.018;6.306;2023-01-04T13:20:21;101153.06;;;12.93;100.00
18900;BME280;9582;52.018;6.306;2023-01-04T13:22:50;101162.50;;;12.97;100.00